createdAt,value
2023-02-28T00:00:41.088Z,2.20
2023-02-28T00:04:12.501Z,2.17
2023-02-28T00:06:15.341Z,2.18
2023-02-28T00:08:15.770Z,2.18
2023-02-28T00:12:51.020Z,2.23
2023-02-28T00:16:56.823Z,2.24
2023-02-28T00:21:00.905Z,2.24
2023-02-28T00:23:31.643Z,2.25
2023-02-28T00:25:32.058Z,2.27
2023-02-28T00:28:37.994Z,2.28
2023-02-28T00:30:08.936Z,2.30
2023-02-28T00:32:40.471Z,2.30
2023-02-28T00:37:49.314Z,2.35
2023-02-28T00:39:19.466Z,2.36
2023-02-28T00:43:27.648Z,2.36
2023-02-28T00:45:30.524Z,2.36
2023-02-28T00:52:37.320Z,2.41
2023-02-28T00:55:42.479Z,2.38
2023-02-28T00:58:16.501Z,2.39
2023-02-28T01:01:49.210Z,2.42
2023-02-28T01:03:49.885Z,2.38
2023-02-28T01:06:23.893Z,2.41
2023-02-28T01:09:28.215Z,2.39
2023-02-28T01:11:29.839Z,2.39
2023-02-28T01:12:59.813Z,2.39
2023-02-28T01:18:09.553Z,2.38
2023-02-28T01:21:40.572Z,2.39
2023-02-28T01:23:41.022Z,2.39
2023-02-28T01:26:13.376Z,2.39
2023-02-28T01:29:16.046Z,2.39
2023-02-28T01:33:51.320Z,2.39
2023-02-28T01:35:21.427Z,2.38
2023-02-28T01:38:56.058Z,2.36
2023-02-28T01:45:31.756Z,2.35
2023-02-28T01:47:02.640Z,2.30
2023-02-28T01:49:04.739Z,2.28
2023-02-28T01:51:35.455Z,2.23
2023-02-28T01:55:42.854Z,2.17
2023-02-28T01:57:13.778Z,2.18
2023-02-28T02:00:50.052Z,2.18
2023-02-28T02:02:52.131Z,2.14
2023-02-28T02:05:53.126Z,2.14
2023-02-28T02:09:26.160Z,2.09
2023-02-28T02:13:58.921Z,2.16
2023-02-28T02:15:29.026Z,2.16
2023-02-28T02:16:59.170Z,2.17
2023-02-28T02:19:00.388Z,2.20
2023-02-28T02:23:03.046Z,2.20
2023-02-28T02:26:36.701Z,2.20
2023-02-28T02:28:37.936Z,2.21
2023-02-28T02:31:08.684Z,2.18
2023-02-28T02:36:11.756Z,2.18
2023-02-28T02:39:46.406Z,2.20
2023-02-28T02:41:46.825Z,2.23
2023-02-28T02:43:47.223Z,2.25
2023-02-28T02:46:49.180Z,2.27
2023-02-28T02:50:33.552Z,2.27
2023-02-28T02:55:39.949Z,2.25
2023-02-28T02:57:40.364Z,2.28
2023-02-28T03:00:43.070Z,2.31
2023-02-28T03:02:43.463Z,2.31
2023-02-28T03:04:13.569Z,2.31
2023-02-28T03:13:01.139Z,2.30
2023-02-28T03:15:01.568Z,2.30
2023-02-28T03:17:33.124Z,2.27
2023-02-28T03:19:33.548Z,2.28
2023-02-28T03:22:05.894Z,2.27
2023-02-28T03:23:36.024Z,2.27
2023-02-28T03:25:06.160Z,2.25
2023-02-28T03:27:08.204Z,2.27
2023-02-28T03:32:12.151Z,2.27
2023-02-28T03:36:17.906Z,2.31
2023-02-28T03:37:48.809Z,2.34
2023-02-28T03:41:50.472Z,2.35
2023-02-28T03:43:50.915Z,2.35
2023-02-28T03:47:27.994Z,2.31
2023-02-28T03:50:01.993Z,2.28
2023-02-28T03:53:35.782Z,2.31
2023-02-28T03:56:08.191Z,2.34
2023-02-28T03:58:08.584Z,2.34
2023-02-28T04:00:09.013Z,2.34
2023-02-28T04:03:10.053Z,2.35
2023-02-28T04:07:11.719Z,2.34
2023-02-28T04:08:42.246Z,2.35
2023-02-28T04:16:55.826Z,2.38
2023-02-28T04:20:51.752Z,2.36
2023-02-28T04:23:32.276Z,2.31
2023-02-28T04:25:54.037Z,2.27
2023-02-28T04:27:43.826Z,2.23
2023-02-28T04:29:44.195Z,2.23
2023-02-28T04:32:04.059Z,2.20
2023-02-28T04:33:32.784Z,2.18
2023-02-28T04:36:35.482Z,2.21
2023-02-28T04:44:24.036Z,2.24
2023-02-28T04:52:40.481Z,2.27
2023-02-28T04:54:10.579Z,2.25
2023-02-28T04:57:01.345Z,2.28
2023-02-28T05:06:02.465Z,2.28
2023-02-28T05:07:32.586Z,2.31
2023-02-28T05:09:03.492Z,2.30
2023-02-28T05:11:03.122Z,2.27
2023-02-28T05:12:34.040Z,2.25
2023-02-28T05:14:04.969Z,2.24
2023-02-28T05:15:35.802Z,2.24
2023-02-28T05:19:40.031Z,2.23
2023-02-28T05:22:09.255Z,2.24
2023-02-28T05:28:43.971Z,2.27
2023-02-28T05:30:13.688Z,2.25
2023-02-28T05:40:30.235Z,2.24
2023-02-28T05:43:59.216Z,2.23
2023-02-28T05:44:59.198Z,2.21
2023-02-28T05:45:59.233Z,2.23
2023-02-28T05:46:59.186Z,2.21
2023-02-28T05:49:30.635Z,2.24
2023-02-28T05:55:34.232Z,2.21
2023-02-28T05:59:06.628Z,2.17
2023-02-28T06:00:36.624Z,2.17
2023-02-28T06:06:11.572Z,2.16
2023-02-28T06:09:16.199Z,2.16
2023-02-28T06:14:24.208Z,2.12
2023-02-28T06:16:58.895Z,2.10
2023-02-28T06:24:36.968Z,2.07
2023-02-28T06:27:10.958Z,2.07
2023-02-28T06:29:11.396Z,2.05
2023-02-28T06:30:41.508Z,2.02
2023-02-28T06:32:11.631Z,1.99
2023-02-28T06:34:43.475Z,1.99
2023-02-28T06:37:48.330Z,1.93
2023-02-28T06:39:17.607Z,1.93
2023-02-28T06:41:18.851Z,1.91
2023-02-28T06:42:48.955Z,1.88
2023-02-28T06:44:50.999Z,1.87
2023-02-28T06:50:53.927Z,1.84
2023-02-28T06:58:40.871Z,1.87
2023-02-28T07:04:16.754Z,1.95
2023-02-28T07:11:28.086Z,2.00
2023-02-28T07:16:00.431Z,2.07
2023-02-28T07:17:30.327Z,2.09
2023-02-28T07:21:37.103Z,2.10
2023-02-28T07:24:07.865Z,2.12
2023-02-28T07:26:38.584Z,2.14
2023-02-28T07:29:10.120Z,2.14
2023-02-28T07:30:40.251Z,2.12
2023-02-28T07:32:10.395Z,2.16
2023-02-28T07:33:40.474Z,2.14
2023-02-28T07:35:40.915Z,2.16
2023-02-28T07:38:15.732Z,2.14
2023-02-28T07:40:16.138Z,2.16
2023-02-28T07:42:16.572Z,2.18
2023-02-28T07:44:16.979Z,2.24
2023-02-28T07:45:16.963Z,2.24
2023-02-28T07:46:16.978Z,2.25
2023-02-28T07:50:47.421Z,2.31
2023-02-28T07:54:49.421Z,2.35
2023-02-28T07:59:56.595Z,2.35
2023-02-28T08:02:28.991Z,2.35
2023-02-28T08:09:04.663Z,2.45
2023-02-28T08:11:37.028Z,2.49
2023-02-28T08:15:41.982Z,2.53
2023-02-28T08:18:17.596Z,2.54
2023-02-28T08:19:46.907Z,2.59
2023-02-28T08:21:17.002Z,2.63
2023-02-28T08:26:20.943Z,2.69
2023-02-28T08:28:26.021Z,2.75
2023-02-28T08:30:24.230Z,2.79
2023-02-28T08:37:06.456Z,2.96
2023-02-28T08:40:09.957Z,3.06
2023-02-28T08:43:12.646Z,3.15
2023-02-28T08:44:43.562Z,3.18
2023-02-28T08:46:13.750Z,3.23
2023-02-28T08:51:06.041Z,3.42
2023-02-28T08:52:52.637Z,3.51
2023-02-28T08:55:54.478Z,3.57
2023-02-28T08:57:24.613Z,3.60
2023-02-28T09:01:00.925Z,3.73
2023-02-28T09:03:01.296Z,3.72
2023-02-28T09:11:16.099Z,3.76
2023-02-28T09:14:19.612Z,3.80
2023-02-28T09:15:50.526Z,3.86
2023-02-28T09:19:24.341Z,3.80
2023-02-28T09:23:57.142Z,3.78
2023-02-28T09:28:02.075Z,3.80
2023-02-28T09:30:33.709Z,3.84
2023-02-28T09:32:03.791Z,3.87
2023-02-28T09:33:33.862Z,3.87
2023-02-28T09:41:07.687Z,3.88
2023-02-28T09:42:37.821Z,3.90
2023-02-28T09:49:15.917Z,3.84
2023-02-28T09:50:46.044Z,3.80
2023-02-28T09:52:46.468Z,3.83
2023-02-28T09:55:49.139Z,3.86
2023-02-28T09:57:49.561Z,3.88
2023-02-28T10:00:22.818Z,3.90
2023-02-28T10:01:52.091Z,3.94
2023-02-28T10:05:27.494Z,4.00
2023-02-28T10:06:56.940Z,4.06
2023-02-28T10:07:56.908Z,4.08
2023-02-28T10:08:56.886Z,4.06
2023-02-28T10:09:56.897Z,4.06
2023-02-28T10:11:27.133Z,4.05
2023-02-28T10:12:58.049Z,4.05
2023-02-28T10:14:58.489Z,4.09
2023-02-28T10:17:00.565Z,4.12
2023-02-28T10:18:29.948Z,4.14
2023-02-28T10:21:02.201Z,4.15
2023-02-28T10:27:43.613Z,4.18
2023-02-28T10:30:14.329Z,4.24
2023-02-28T10:32:14.855Z,4.27
2023-02-28T10:41:23.621Z,4.44
2023-02-28T10:43:54.316Z,4.42
2023-02-28T10:48:58.291Z,4.50
2023-02-28T10:52:00.168Z,4.54
2023-02-28T10:55:02.836Z,4.54
2023-02-28T10:56:33.204Z,4.54
2023-02-28T10:59:05.321Z,4.59
2023-02-28T11:02:08.938Z,4.55
2023-02-28T11:05:40.161Z,4.59
2023-02-28T11:07:53.056Z,4.58
2023-02-28T11:09:11.521Z,4.58
2023-02-28T11:13:43.503Z,4.59
2023-02-28T11:16:15.865Z,4.69
2023-02-28T11:19:20.434Z,4.82
2023-02-28T11:23:57.062Z,4.73
2023-02-28T11:26:58.130Z,4.78
2023-02-28T11:30:29.477Z,4.75
2023-02-28T11:33:32.401Z,4.70
2023-02-28T11:35:02.257Z,4.72
2023-02-28T11:36:32.374Z,4.73
2023-02-28T11:42:09.884Z,4.78
2023-02-28T11:45:45.316Z,4.85
2023-02-28T11:48:48.826Z,4.88
